Royal Prince — WCX8037 — position and weather

sailwx.info

Track history (hours):
 
Tides and Currents Weather Stations Pressure Air Temp Water Temp Dewpoint Dewpoint Depression Visibility Wind Speed Wind Dir Waves Ship Positions

Royal Prince

Owner: Golden Gate Scenic Steamship Corp, SAN FRANCISCO, CA. More information available from US FCC via Universal Licensing System and Coast Guard Vessel Documentation Center.

Last reported at 2018-Jun-24 01:30 UTC. Time now 2018-Jun-24 01:43 UTC.
Position N 37°49' W 122°27'.

; draft 3 m.

Type: Passenger vessel. MMSI: 366975760.

Date/timePositionNaut miles runAvg speedWind from/ knotsBaromVisibWave heightAir tempDewpointWater temp
2018-Jun-24 01:30N 37°49' W 122°27'2 3.0
2018-Jun-24 01:00N 37°49' W 122°25'2 4.9
2018-Jun-24 00:30N 37°49' W 122°28'2 4.9
2018-Jun-24 00:00N 37°49' W 122°25'1 2.1
2018-Jun-23 23:30N 37°50' W 122°25'1 2.9
2018-Jun-23 23:00N 37°49' W 122°27'2 3.1
2018-Jun-23 22:30N 37°49' W 122°25'3 5.3
2018-Jun-23 22:00N 37°49' W 122°28'3 5.3
2018-Jun-23 21:30N 37°49' W 122°25'0 1.0
2018-Jun-23 21:00N 37°49' W 122°25'3 5.9
2018-Jun-23 20:30N 37°49' W 122°28'3 5.5
2018-Jun-23 20:00N 37°49' W 122°25'0 0.0
2018-Jun-23 19:30N 37°49' W 122°25'1 2.2
2018-Jun-23 19:00N 37°50' W 122°25'1 2.8
2018-Jun-23 18:30N 37°49' W 122°27'2 3.2
2018-Jun-23 18:00N 37°49' W 122°25'3 5.0
2018-Jun-23 17:30N 37°49' W 122°28'3 5.0
2018-Jun-23 17:00N 37°49' W 122°25'0 0.0
2018-Jun-23 02:30N 37°49' W 122°25'1 2.1
2018-Jun-23 02:00N 37°50' W 122°25'1 2.8
2018-Jun-23 01:30N 37°49' W 122°27'2 3.2
2018-Jun-23 01:00N 37°49' W 122°25'2 4.7
2018-Jun-23 00:30N 37°49' W 122°28'2 4.7
2018-Jun-23 00:00N 37°49' W 122°25'1 1.6
2018-Jun-22 23:30N 37°49' W 122°25'2 3.3
2018-Jun-22 23:00N 37°49' W 122°27'2 3.4
2018-Jun-22 22:30N 37°49' W 122°25'3 5.4
2018-Jun-22 22:00N 37°49' W 122°28'3 5.4
2018-Jun-22 21:30N 37°49' W 122°25'1 1.2
2018-Jun-22 21:00N 37°49' W 122°24'3 6.0
2018-Jun-22 20:30N 37°49' W 122°28'3 5.1
2018-Jun-22 19:59N 37°49' W 122°25'0 0.5
2018-Jun-22 19:30N 37°49' W 122°25'1 2.2
2018-Jun-22 19:00N 37°50' W 122°26'1 1.9
2018-Jun-22 18:30N 37°49' W 122°26'1 1.5
2018-Jun-22 18:00N 37°49' W 122°25'2 4.7
2018-Jun-22 17:30N 37°49' W 122°28'2 4.7
2018-Jun-22 17:00N 37°49' W 122°25'0 0.0
2018-Jun-22 02:22N 37°49' W 122°25'1 2.3
2018-Jun-22 02:00N 37°49' W 122°25'2 3.7
2018-Jun-22 01:30N 37°49' W 122°27'2 3.7
2018-Jun-22 01:00N 37°49' W 122°25'2 4.2
2018-Jun-22 00:30N 37°49' W 122°27'2 4.2
2018-Jun-22 00:00N 37°49' W 122°25'1 1.6
2018-Jun-21 23:30N 37°49' W 122°25'2 3.6
2018-Jun-21 23:00N 37°49' W 122°27'2 3.6
2018-Jun-21 22:30N 37°49' W 122°25'2 4.9
2018-Jun-21 22:00N 37°49' W 122°28'2 4.9
2018-Jun-21 21:30N 37°49' W 122°25'1 1.6
2018-Jun-21 21:00N 37°49' W 122°24'3 6.4
2018-Jun-21 20:30N 37°49' W 122°28'3 5.2
2018-Jun-21 20:00N 37°49' W 122°25'0 0.0
2018-Jun-21 19:30N 37°49' W 122°25'0 0.0
2018-Jun-21 18:59N 37°49' W 122°25'2 4.2
2018-Jun-21 18:30N 37°48' W 122°23'4 7.5
2018-Jun-21 18:00N 37°49' W 122°27'2 3.5
2018-Jun-21 17:30N 37°49' W 122°25'1 1.5
2018-Jun-21 17:00N 37°49' W 122°24'3 6.0
2018-Jun-21 16:30N 37°49' W 122°28'2 4.9
2018-Jun-21 16:00N 37°49' W 122°25'0 0.0
2018-Jun-21 02:24N 37°49' W 122°25'1 2.7
2018-Jun-21 02:00N 37°50' W 122°25'1 2.7
2018-Jun-21 01:30N 37°49' W 122°27'1 2.7
2018-Jun-21 01:00N 37°49' W 122°25'3 5.2
2018-Jun-21 00:30N 37°50' W 122°28'3 5.2
2018-Jun-21 00:00N 37°49' W 122°25'1 2.2
2018-Jun-20 23:30N 37°50' W 122°25'1 2.9
2018-Jun-20 23:00N 37°49' W 122°27'1 2.7
2018-Jun-20 22:30N 37°49' W 122°25'2 4.7
2018-Jun-20 22:00N 37°49' W 122°28'2 4.7
2018-Jun-20 21:30N 37°49' W 122°25'1 1.1
2018-Jun-20 21:00N 37°49' W 122°24'3 5.8
2018-Jun-20 20:30N 37°49' W 122°28'2 4.8
2018-Jun-20 20:00N 37°49' W 122°25'0 0.0
2018-Jun-20 19:30N 37°49' W 122°25'1 1.8
2018-Jun-20 19:00N 37°49' W 122°25'2 3.9
2018-Jun-20 18:30N 37°49' W 122°27'2 3.8
2018-Jun-20 18:00N 37°49' W 122°25'2 4.5
2018-Jun-20 17:30N 37°49' W 122°28'2 4.5
2018-Jun-20 17:00N 37°49' W 122°25'0 0.0
2018-Jun-20 16:30N 37°49' W 122°25'0 0.0
2018-Jun-20 02:22N 37°49' W 122°25'1 2.9
2018-Jun-20 02:00N 37°50' W 122°25'1 3.0
2018-Jun-20 01:30N 37°49' W 122°27'1 3.0
2018-Jun-20 01:00N 37°49' W 122°25'2 4.4
2018-Jun-20 00:30N 37°50' W 122°27'2 4.4
2018-Jun-20 00:00N 37°49' W 122°25'1 1.9
2018-Jun-19 23:30N 37°49' W 122°25'2 3.2
2018-Jun-19 23:00N 37°49' W 122°27'2 2.9
2018-Jun-19 22:29N 37°49' W 122°25'2 5.1
2018-Jun-19 22:00N 37°50' W 122°28'2 4.8
2018-Jun-19 21:30N 37°49' W 122°25'0 1.0
2018-Jun-19 21:00N 37°49' W 122°24'3 6.2
2018-Jun-19 20:30N 37°49' W 122°28'3 5.5
2018-Jun-19 20:00N 37°49' W 122°25'0 0.0
2018-Jun-19 19:30N 37°49' W 122°25'1 1.8
2018-Jun-19 19:00N 37°49' W 122°25'2 4.2
2018-Jun-19 18:30N 37°49' W 122°27'2 3.9
2018-Jun-19 18:00N 37°49' W 122°25'2 4.2
2018-Jun-19 17:30N 37°49' W 122°27'2 4.2
2018-Jun-19 17:00N 37°49' W 122°25'0 0.0
2018-Jun-19 16:30N 37°49' W 122°25'0 0.0
2018-Jun-19 02:21N 37°49' W 122°25'1 3.0
2018-Jun-19 02:00N 37°50' W 122°25'2 3.3
2018-Jun-19 01:30N 37°49' W 122°27'2 3.4
2018-Jun-19 01:00N 37°49' W 122°25'2 4.6
2018-Jun-19 00:30N 37°50' W 122°27'2 4.5
2018-Jun-19 00:00N 37°49' W 122°25'1 2.3
2018-Jun-18 23:30N 37°50' W 122°25'1 2.4
2018-Jun-18 23:00N 37°49' W 122°26'1 2.2
2018-Jun-18 22:30N 37°49' W 122°25'2 4.8
2018-Jun-18 22:00N 37°49' W 122°28'2 4.8
2018-Jun-18 21:30N 37°49' W 122°25'0 0.9
2018-Jun-18 21:00N 37°49' W 122°24'3 5.7
2018-Jun-18 20:30N 37°49' W 122°28'2 4.9
2018-Jun-18 20:00N 37°49' W 122°25'0 0.0
2018-Jun-18 19:30N 37°49' W 122°25'1 1.9
2018-Jun-18 19:00N 37°50' W 122°25'2 3.2
2018-Jun-18 18:30N 37°49' W 122°27'2 3.1
2018-Jun-18 18:00N 37°49' W 122°25'3 5.1
2018-Jun-18 17:30N 37°49' W 122°28'3 5.0
2018-Jun-18 17:00N 37°49' W 122°25'0 0.0
2018-Jun-18 16:30N 37°49' W 122°25'0 0.0
2018-Jun-18 02:25N 37°49' W 122°25'1 3.1
2018-Jun-18 02:00N 37°50' W 122°26'1 2.4
2018-Jun-18 01:30N 37°49' W 122°26'1 1.9
2018-Jun-18 00:59N 37°49' W 122°25'2 5.0
2018-Jun-18 00:30N 37°50' W 122°28'2 4.8
2018-Jun-18 00:00N 37°49' W 122°25'1 2.3
2018-Jun-17 23:30N 37°50' W 122°25'1 2.6
2018-Jun-17 23:00N 37°49' W 122°26'1 2.2
2018-Jun-17 22:30N 37°49' W 122°25'3 6.0
2018-Jun-17 22:00N 37°49' W 122°29'3 6.3
2018-Jun-17 21:30N 37°49' W 122°25'1 1.2
2018-Jun-17 21:00N 37°49' W 122°24'2 4.4
2018-Jun-17 20:30N 37°49' W 122°27'2 3.7
2018-Jun-17 20:00N 37°49' W 122°25'0 0.0
2018-Jun-17 19:30N 37°49' W 122°25'1 2.5
2018-Jun-17 19:00N 37°50' W 122°25'1 1.7
2018-Jun-17 18:30N 37°49' W 122°26'1 1.3
2018-Jun-17 18:00N 37°49' W 122°25'3 5.6
2018-Jun-17 17:30N 37°49' W 122°28'3 5.8
2018-Jun-17 17:00N 37°49' W 122°25'0 0.0
2018-Jun-17 16:30N 37°49' W 122°25'0 0.0
2018-Jun-17 02:19N 37°49' W 122°25'1 2.8
2018-Jun-17 02:00N 37°49' W 122°25'2 4.0
2018-Jun-17 01:30N 37°49' W 122°27'2 4.0
2018-Jun-17 01:00N 37°49' W 122°25'2 4.4
2018-Jun-17 00:30N 37°49' W 122°27'2 4.4
2018-Jun-17 00:00N 37°49' W 122°25'1 2.1
2018-Jun-16 23:30N 37°50' W 122°25'1 2.9
2018-Jun-16 23:00N 37°49' W 122°27'2 3.2
2018-Jun-16 22:30N 37°49' W 122°25'3 5.1
2018-Jun-16 22:00N 37°49' W 122°28'3 5.0
2018-Jun-16 21:30N 37°49' W 122°25'1 1.2
2018-Jun-16 21:00N 37°49' W 122°24'3 5.2
2018-Jun-16 20:30N 37°49' W 122°28'2 4.1
2018-Jun-16 20:00N 37°49' W 122°25'0 0.0
2018-Jun-16 19:30N 37°49' W 122°25'1 2.5
2018-Jun-16 19:00N 37°50' W 122°25'1 1.8
2018-Jun-16 18:31N 37°49' W 122°26'1 1.4
2018-Jun-16 18:01N 37°49' W 122°25'3 5.5
2018-Jun-16 17:31N 37°49' W 122°28'3 5.5
2018-Jun-16 17:01N 37°49' W 122°25'0 0.0
2018-Jun-16 02:22N 37°49' W 122°25'1 2.2
2018-Jun-16 02:00N 37°49' W 122°25'2 4.4
2018-Jun-16 01:31N 37°49' W 122°28'2 4.2
2018-Jun-16 01:00N 37°49' W 122°25'2 4.4
2018-Jun-16 00:30N 37°49' W 122°27'2 4.3
2018-Jun-16 00:01N 37°49' W 122°25'1 2.0
2018-Jun-15 23:31N 37°50' W 122°25'2 3.0
2018-Jun-15 23:00N 37°49' W 122°27'2 3.3
2018-Jun-15 22:30N 37°49' W 122°25'3 6.6
2018-Jun-15 22:01N 37°49' W 122°29'3 6.5
2018-Jun-15 21:31N 37°49' W 122°25'1 2.2
2018-Jun-15 21:00N 37°50' W 122°25'1 2.4
2018-Jun-15 20:30N 37°49' W 122°27'2 3.0
2018-Jun-15 20:00N 37°49' W 122°25'0 0.0
2018-Jun-15 19:29N 37°49' W 122°25'1 2.3
2018-Jun-15 18:59N 37°50' W 122°25'1 2.7
2018-Jun-15 18:30N 37°49' W 122°27'1 2.9
2018-Jun-15 18:00N 37°49' W 122°25'3 5.7
2018-Jun-15 17:30N 37°49' W 122°28'3 5.7
2018-Jun-15 17:00N 37°49' W 122°25'0 0.0
2018-Jun-15 02:25N 37°49' W 122°25'1 1.8
2018-Jun-15 02:01N 37°49' W 122°25'2 4.3
2018-Jun-15 01:30N 37°49' W 122°27'2 4.0
2018-Jun-15 01:00N 37°49' W 122°25'2 4.0
2018-Jun-15 00:30N 37°50' W 122°27'2 4.0
2018-Jun-15 00:00N 37°49' W 122°25'1 1.4
2018-Jun-14 23:30N 37°49' W 122°25'2 4.4
2018-Jun-14 23:00N 37°49' W 122°28'2 4.3
2018-Jun-14 22:30N 37°49' W 122°25'2 4.5
2018-Jun-14 22:00N 37°49' W 122°27'2 4.4
2018-Jun-14 21:30N 37°49' W 122°25'1 1.6
2018-Jun-14 21:00N 37°49' W 122°24'3 6.2
2018-Jun-14 20:30N 37°49' W 122°28'3 5.0
2018-Jun-14 20:00N 37°49' W 122°25'0 0.0
2018-Jun-14 19:30N 37°49' W 122°25'1 2.1
2018-Jun-14 19:00N 37°50' W 122°25'2 3.2
2018-Jun-14 18:30N 37°49' W 122°27'2 3.2
2018-Jun-14 18:00N 37°49' W 122°25'2 4.7
2018-Jun-14 17:29N 37°49' W 122°28'2 5.0
2018-Jun-14 17:00N 37°49' W 122°25'0 0.0
2018-Jun-14 16:29N 37°49' W 122°25'0 0.0
2018-Jun-14 02:22N 37°49' W 122°25'1 2.2
2018-Jun-14 02:00N 37°49' W 122°25'  
Track history (hours):
 
Tides and Currents Weather Stations Pressure Air Temp Water Temp Dewpoint Dewpoint Depression Visibility Wind Speed Wind Dir Waves Ship Positions

Royal Prince

Owner: Golden Gate Scenic Steamship Corp, SAN FRANCISCO, CA. More information available from US FCC via Universal Licensing System and Coast Guard Vessel Documentation Center.

Last reported at 2018-Jun-24 01:30 UTC. Time now 2018-Jun-24 01:43 UTC.
Position N 37°49' W 122°27'.

; draft 3 m.

Type: Passenger vessel. MMSI: 366975760.

Date/timePositionNaut miles runAvg speedWind from/ knotsBaromVisibWave heightAir tempDewpointWater temp
2018-Jun-24 01:30N 37°49' W 122°27'2 3.0
2018-Jun-24 01:00N 37°49' W 122°25'2 4.9
2018-Jun-24 00:30N 37°49' W 122°28'2 4.9
2018-Jun-24 00:00N 37°49' W 122°25'1 2.1
2018-Jun-23 23:30N 37°50' W 122°25'1 2.9
2018-Jun-23 23:00N 37°49' W 122°27'2 3.1
2018-Jun-23 22:30N 37°49' W 122°25'3 5.3
2018-Jun-23 22:00N 37°49' W 122°28'3 5.3
2018-Jun-23 21:30N 37°49' W 122°25'0 1.0
2018-Jun-23 21:00N 37°49' W 122°25'3 5.9
2018-Jun-23 20:30N 37°49' W 122°28'3 5.5
2018-Jun-23 20:00N 37°49' W 122°25'0 0.0
2018-Jun-23 19:30N 37°49' W 122°25'1 2.2
2018-Jun-23 19:00N 37°50' W 122°25'1 2.8
2018-Jun-23 18:30N 37°49' W 122°27'2 3.2
2018-Jun-23 18:00N 37°49' W 122°25'3 5.0
2018-Jun-23 17:30N 37°49' W 122°28'3 5.0
2018-Jun-23 17:00N 37°49' W 122°25'0 0.0
2018-Jun-23 02:30N 37°49' W 122°25'1 2.1
2018-Jun-23 02:00N 37°50' W 122°25'1 2.8
2018-Jun-23 01:30N 37°49' W 122°27'2 3.2
2018-Jun-23 01:00N 37°49' W 122°25'2 4.7
2018-Jun-23 00:30N 37°49' W 122°28'2 4.7
2018-Jun-23 00:00N 37°49' W 122°25'1 1.6
2018-Jun-22 23:30N 37°49' W 122°25'2 3.3
2018-Jun-22 23:00N 37°49' W 122°27'2 3.4
2018-Jun-22 22:30N 37°49' W 122°25'3 5.4
2018-Jun-22 22:00N 37°49' W 122°28'3 5.4
2018-Jun-22 21:30N 37°49' W 122°25'1 1.2
2018-Jun-22 21:00N 37°49' W 122°24'3 6.0
2018-Jun-22 20:30N 37°49' W 122°28'3 5.1
2018-Jun-22 19:59N 37°49' W 122°25'0 0.5
2018-Jun-22 19:30N 37°49' W 122°25'1 2.2
2018-Jun-22 19:00N 37°50' W 122°26'1 1.9
2018-Jun-22 18:30N 37°49' W 122°26'1 1.5
2018-Jun-22 18:00N 37°49' W 122°25'2 4.7
2018-Jun-22 17:30N 37°49' W 122°28'2 4.7
2018-Jun-22 17:00N 37°49' W 122°25'0 0.0
2018-Jun-22 02:22N 37°49' W 122°25'1 2.3
2018-Jun-22 02:00N 37°49' W 122°25'2 3.7
2018-Jun-22 01:30N 37°49' W 122°27'2 3.7
2018-Jun-22 01:00N 37°49' W 122°25'2 4.2
2018-Jun-22 00:30N 37°49' W 122°27'2 4.2
2018-Jun-22 00:00N 37°49' W 122°25'1 1.6
2018-Jun-21 23:30N 37°49' W 122°25'2 3.6
2018-Jun-21 23:00N 37°49' W 122°27'2 3.6
2018-Jun-21 22:30N 37°49' W 122°25'2 4.9
2018-Jun-21 22:00N 37°49' W 122°28'2 4.9
2018-Jun-21 21:30N 37°49' W 122°25'1 1.6
2018-Jun-21 21:00N 37°49' W 122°24'3 6.4
2018-Jun-21 20:30N 37°49' W 122°28'3 5.2
2018-Jun-21 20:00N 37°49' W 122°25'0 0.0
2018-Jun-21 19:30N 37°49' W 122°25'0 0.0
2018-Jun-21 18:59N 37°49' W 122°25'2 4.2
2018-Jun-21 18:30N 37°48' W 122°23'4 7.5
2018-Jun-21 18:00N 37°49' W 122°27'2 3.5
2018-Jun-21 17:30N 37°49' W 122°25'1 1.5
2018-Jun-21 17:00N 37°49' W 122°24'3 6.0
2018-Jun-21 16:30N 37°49' W 122°28'2 4.9
2018-Jun-21 16:00N 37°49' W 122°25'0 0.0
2018-Jun-21 02:24N 37°49' W 122°25'1 2.7
2018-Jun-21 02:00N 37°50' W 122°25'1 2.7
2018-Jun-21 01:30N 37°49' W 122°27'1 2.7
2018-Jun-21 01:00N 37°49' W 122°25'3 5.2
2018-Jun-21 00:30N 37°50' W 122°28'3 5.2
2018-Jun-21 00:00N 37°49' W 122°25'1 2.2
2018-Jun-20 23:30N 37°50' W 122°25'1 2.9
2018-Jun-20 23:00N 37°49' W 122°27'1 2.7
2018-Jun-20 22:30N 37°49' W 122°25'2 4.7
2018-Jun-20 22:00N 37°49' W 122°28'2 4.7
2018-Jun-20 21:30N 37°49' W 122°25'1 1.1
2018-Jun-20 21:00N 37°49' W 122°24'3 5.8
2018-Jun-20 20:30N 37°49' W 122°28'2 4.8
2018-Jun-20 20:00N 37°49' W 122°25'0 0.0
2018-Jun-20 19:30N 37°49' W 122°25'1 1.8
2018-Jun-20 19:00N 37°49' W 122°25'2 3.9
2018-Jun-20 18:30N 37°49' W 122°27'2 3.8
2018-Jun-20 18:00N 37°49' W 122°25'2 4.5
2018-Jun-20 17:30N 37°49' W 122°28'2 4.5
2018-Jun-20 17:00N 37°49' W 122°25'0 0.0
2018-Jun-20 16:30N 37°49' W 122°25'0 0.0
2018-Jun-20 02:22N 37°49' W 122°25'1 2.9
2018-Jun-20 02:00N 37°50' W 122°25'1 3.0
2018-Jun-20 01:30N 37°49' W 122°27'1 3.0
2018-Jun-20 01:00N 37°49' W 122°25'2 4.4
2018-Jun-20 00:30N 37°50' W 122°27'2 4.4
2018-Jun-20 00:00N 37°49' W 122°25'1 1.9
2018-Jun-19 23:30N 37°49' W 122°25'2 3.2
2018-Jun-19 23:00N 37°49' W 122°27'2 2.9
2018-Jun-19 22:29N 37°49' W 122°25'2 5.1
2018-Jun-19 22:00N 37°50' W 122°28'2 4.8
2018-Jun-19 21:30N 37°49' W 122°25'0 1.0
2018-Jun-19 21:00N 37°49' W 122°24'3 6.2
2018-Jun-19 20:30N 37°49' W 122°28'3 5.5
2018-Jun-19 20:00N 37°49' W 122°25'0 0.0
2018-Jun-19 19:30N 37°49' W 122°25'1 1.8
2018-Jun-19 19:00N 37°49' W 122°25'2 4.2
2018-Jun-19 18:30N 37°49' W 122°27'2 3.9
2018-Jun-19 18:00N 37°49' W 122°25'2 4.2
2018-Jun-19 17:30N 37°49' W 122°27'2 4.2
2018-Jun-19 17:00N 37°49' W 122°25'0 0.0
2018-Jun-19 16:30N 37°49' W 122°25'0 0.0
2018-Jun-19 02:21N 37°49' W 122°25'1 3.0
2018-Jun-19 02:00N 37°50' W 122°25'2 3.3
2018-Jun-19 01:30N 37°49' W 122°27'2 3.4
2018-Jun-19 01:00N 37°49' W 122°25'2 4.6
2018-Jun-19 00:30N 37°50' W 122°27'2 4.5
2018-Jun-19 00:00N 37°49' W 122°25'1 2.3
2018-Jun-18 23:30N 37°50' W 122°25'1 2.4
2018-Jun-18 23:00N 37°49' W 122°26'1 2.2
2018-Jun-18 22:30N 37°49' W 122°25'2 4.8
2018-Jun-18 22:00N 37°49' W 122°28'2 4.8
2018-Jun-18 21:30N 37°49' W 122°25'0 0.9
2018-Jun-18 21:00N 37°49' W 122°24'3 5.7
2018-Jun-18 20:30N 37°49' W 122°28'2 4.9
2018-Jun-18 20:00N 37°49' W 122°25'0 0.0
2018-Jun-18 19:30N 37°49' W 122°25'1 1.9
2018-Jun-18 19:00N 37°50' W 122°25'2 3.2
2018-Jun-18 18:30N 37°49' W 122°27'2 3.1
2018-Jun-18 18:00N 37°49' W 122°25'3 5.1
2018-Jun-18 17:30N 37°49' W 122°28'3 5.0
2018-Jun-18 17:00N 37°49' W 122°25'0 0.0
2018-Jun-18 16:30N 37°49' W 122°25'0 0.0
2018-Jun-18 02:25N 37°49' W 122°25'1 3.1
2018-Jun-18 02:00N 37°50' W 122°26'1 2.4
2018-Jun-18 01:30N 37°49' W 122°26'1 1.9
2018-Jun-18 00:59N 37°49' W 122°25'2 5.0
2018-Jun-18 00:30N 37°50' W 122°28'2 4.8
2018-Jun-18 00:00N 37°49' W 122°25'1 2.3
2018-Jun-17 23:30N 37°50' W 122°25'1 2.6
2018-Jun-17 23:00N 37°49' W 122°26'1 2.2
2018-Jun-17 22:30N 37°49' W 122°25'3 6.0
2018-Jun-17 22:00N 37°49' W 122°29'3 6.3
2018-Jun-17 21:30N 37°49' W 122°25'1 1.2
2018-Jun-17 21:00N 37°49' W 122°24'2 4.4
2018-Jun-17 20:30N 37°49' W 122°27'2 3.7
2018-Jun-17 20:00N 37°49' W 122°25'0 0.0
2018-Jun-17 19:30N 37°49' W 122°25'1 2.5
2018-Jun-17 19:00N 37°50' W 122°25'1 1.7
2018-Jun-17 18:30N 37°49' W 122°26'1 1.3
2018-Jun-17 18:00N 37°49' W 122°25'3 5.6
2018-Jun-17 17:30N 37°49' W 122°28'3 5.8
2018-Jun-17 17:00N 37°49' W 122°25'0 0.0
2018-Jun-17 16:30N 37°49' W 122°25'0 0.0
2018-Jun-17 02:19N 37°49' W 122°25'1 2.8
2018-Jun-17 02:00N 37°49' W 122°25'2 4.0
2018-Jun-17 01:30N 37°49' W 122°27'2 4.0
2018-Jun-17 01:00N 37°49' W 122°25'2 4.4
2018-Jun-17 00:30N 37°49' W 122°27'2 4.4
2018-Jun-17 00:00N 37°49' W 122°25'1 2.1
2018-Jun-16 23:30N 37°50' W 122°25'1 2.9
2018-Jun-16 23:00N 37°49' W 122°27'2 3.2
2018-Jun-16 22:30N 37°49' W 122°25'3 5.1
2018-Jun-16 22:00N 37°49' W 122°28'3 5.0
2018-Jun-16 21:30N 37°49' W 122°25'1 1.2
2018-Jun-16 21:00N 37°49' W 122°24'3 5.2
2018-Jun-16 20:30N 37°49' W 122°28'2 4.1
2018-Jun-16 20:00N 37°49' W 122°25'0 0.0
2018-Jun-16 19:30N 37°49' W 122°25'1 2.5
2018-Jun-16 19:00N 37°50' W 122°25'1 1.8
2018-Jun-16 18:31N 37°49' W 122°26'1 1.4
2018-Jun-16 18:01N 37°49' W 122°25'3 5.5
2018-Jun-16 17:31N 37°49' W 122°28'3 5.5
2018-Jun-16 17:01N 37°49' W 122°25'0 0.0
2018-Jun-16 02:22N 37°49' W 122°25'1 2.2
2018-Jun-16 02:00N 37°49' W 122°25'2 4.4
2018-Jun-16 01:31N 37°49' W 122°28'2 4.2
2018-Jun-16 01:00N 37°49' W 122°25'2 4.4
2018-Jun-16 00:30N 37°49' W 122°27'2 4.3
2018-Jun-16 00:01N 37°49' W 122°25'1 2.0
2018-Jun-15 23:31N 37°50' W 122°25'2 3.0
2018-Jun-15 23:00N 37°49' W 122°27'2 3.3
2018-Jun-15 22:30N 37°49' W 122°25'3 6.6
2018-Jun-15 22:01N 37°49' W 122°29'3 6.5
2018-Jun-15 21:31N 37°49' W 122°25'1 2.2
2018-Jun-15 21:00N 37°50' W 122°25'1 2.4
2018-Jun-15 20:30N 37°49' W 122°27'2 3.0
2018-Jun-15 20:00N 37°49' W 122°25'0 0.0
2018-Jun-15 19:29N 37°49' W 122°25'1 2.3
2018-Jun-15 18:59N 37°50' W 122°25'1 2.7
2018-Jun-15 18:30N 37°49' W 122°27'1 2.9
2018-Jun-15 18:00N 37°49' W 122°25'3 5.7
2018-Jun-15 17:30N 37°49' W 122°28'3 5.7
2018-Jun-15 17:00N 37°49' W 122°25'0 0.0
2018-Jun-15 02:25N 37°49' W 122°25'1 1.8
2018-Jun-15 02:01N 37°49' W 122°25'2 4.3
2018-Jun-15 01:30N 37°49' W 122°27'2 4.0
2018-Jun-15 01:00N 37°49' W 122°25'2 4.0
2018-Jun-15 00:30N 37°50' W 122°27'2 4.0
2018-Jun-15 00:00N 37°49' W 122°25'1 1.4
2018-Jun-14 23:30N 37°49' W 122°25'2 4.4
2018-Jun-14 23:00N 37°49' W 122°28'2 4.3
2018-Jun-14 22:30N 37°49' W 122°25'2 4.5
2018-Jun-14 22:00N 37°49' W 122°27'2 4.4
2018-Jun-14 21:30N 37°49' W 122°25'1 1.6
2018-Jun-14 21:00N 37°49' W 122°24'3 6.2
2018-Jun-14 20:30N 37°49' W 122°28'3 5.0
2018-Jun-14 20:00N 37°49' W 122°25'0 0.0
2018-Jun-14 19:30N 37°49' W 122°25'1 2.1
2018-Jun-14 19:00N 37°50' W 122°25'2 3.2
2018-Jun-14 18:30N 37°49' W 122°27'2 3.2
2018-Jun-14 18:00N 37°49' W 122°25'2 4.7
2018-Jun-14 17:29N 37°49' W 122°28'2 5.0
2018-Jun-14 17:00N 37°49' W 122°25'0 0.0
2018-Jun-14 16:29N 37°49' W 122°25'0 0.0
2018-Jun-14 02:22N 37°49' W 122°25'1 2.2
2018-Jun-14 02:00N 37°49' W 122°25'  

Dump ship's entire track history